sensor_id;sensor_type;location;lat;lon;timestamp;P1;durP1;ratioP1;P2;durP2;ratioP2
13250;SDS011;6692;50.710;7.180;2023-01-16T00:00:58;57.83;;;55.53;;
13250;SDS011;6692;50.710;7.180;2023-01-16T00:02:58;54.47;;;52.27;;
13250;SDS011;6692;50.710;7.180;2023-01-16T00:04:59;55.23;;;53.13;;
13250;SDS011;6692;50.710;7.180;2023-01-16T00:07:00;55.43;;;53.33;;
13250;SDS011;6692;50.710;7.180;2023-01-16T00:09:00;60.33;;;58.07;;
13250;SDS011;6692;50.710;7.180;2023-01-16T00:11:01;54.50;;;52.43;;
13250;SDS011;6692;50.710;7.180;2023-01-16T00:13:02;56.63;;;54.57;;
13250;SDS011;6692;50.710;7.180;2023-01-16T00:15:03;57.00;;;54.90;;
13250;SDS011;6692;50.710;7.180;2023-01-16T00:17:05;53.07;;;50.93;;
13250;SDS011;6692;50.710;7.180;2023-01-16T00:19:06;53.43;;;51.43;;
13250;SDS011;6692;50.710;7.180;2023-01-16T00:21:07;53.60;;;51.50;;
13250;SDS011;6692;50.710;7.180;2023-01-16T00:23:08;51.07;;;48.90;;
13250;SDS011;6692;50.710;7.180;2023-01-16T00:25:08;51.43;;;49.33;;
13250;SDS011;6692;50.710;7.180;2023-01-16T00:27:09;48.20;;;46.43;;
13250;SDS011;6692;50.710;7.180;2023-01-16T00:29:10;46.77;;;44.57;;
13250;SDS011;6692;50.710;7.180;2023-01-16T00:31:10;50.57;;;48.67;;
13250;SDS011;6692;50.710;7.180;2023-01-16T00:33:11;46.67;;;44.90;;
13250;SDS011;6692;50.710;7.180;2023-01-16T00:35:12;51.10;;;49.17;;
13250;SDS011;6692;50.710;7.180;2023-01-16T00:37:14;52.43;;;50.50;;
13250;SDS011;6692;50.710;7.180;2023-01-16T00:39:14;52.37;;;50.33;;
13250;SDS011;6692;50.710;7.180;2023-01-16T00:41:15;45.57;;;43.93;;
13250;SDS011;6692;50.710;7.180;2023-01-16T00:43:16;53.07;;;51.10;;
13250;SDS011;6692;50.710;7.180;2023-01-16T00:45:16;49.37;;;47.43;;
13250;SDS011;6692;50.710;7.180;2023-01-16T00:47:17;48.30;;;46.33;;
13250;SDS011;6692;50.710;7.180;2023-01-16T00:49:18;44.20;;;42.53;;
13250;SDS011;6692;50.710;7.180;2023-01-16T00:51:18;50.53;;;48.67;;
13250;SDS011;6692;50.710;7.180;2023-01-16T00:53:19;54.80;;;52.77;;
13250;SDS011;6692;50.710;7.180;2023-01-16T00:55:20;53.93;;;51.80;;
13250;SDS011;6692;50.710;7.180;2023-01-16T00:57:20;52.07;;;50.03;;
13250;SDS011;6692;50.710;7.180;2023-01-16T00:59:21;58.33;;;56.13;;
13250;SDS011;6692;50.710;7.180;2023-01-16T01:01:22;56.53;;;54.40;;
13250;SDS011;6692;50.710;7.180;2023-01-16T01:03:22;58.60;;;56.47;;
13250;SDS011;6692;50.710;7.180;2023-01-16T01:05:23;64.97;;;62.50;;
13250;SDS011;6692;50.710;7.180;2023-01-16T01:07:24;67.27;;;64.67;;
13250;SDS011;6692;50.710;7.180;2023-01-16T01:09:25;60.87;;;58.43;;
13250;SDS011;6692;50.710;7.180;2023-01-16T01:11:25;66.43;;;64.03;;
13250;SDS011;6692;50.710;7.180;2023-01-16T01:13:26;66.30;;;63.73;;
13250;SDS011;6692;50.710;7.180;2023-01-16T01:15:27;67.57;;;65.13;;
13250;SDS011;6692;50.710;7.180;2023-01-16T01:17:27;65.53;;;63.07;;
13250;SDS011;6692;50.710;7.180;2023-01-16T01:19:28;67.33;;;64.93;;
13250;SDS011;6692;50.710;7.180;2023-01-16T01:21:29;66.83;;;64.30;;
13250;SDS011;6692;50.710;7.180;2023-01-16T01:23:30;71.27;;;68.50;;
13250;SDS011;6692;50.710;7.180;2023-01-16T01:25:31;70.87;;;68.27;;
13250;SDS011;6692;50.710;7.180;2023-01-16T01:27:32;70.57;;;68.03;;
13250;SDS011;6692;50.710;7.180;2023-01-16T01:29:33;71.10;;;68.60;;
13250;SDS011;6692;50.710;7.180;2023-01-16T01:31:33;77.40;;;74.70;;
13250;SDS011;6692;50.710;7.180;2023-01-16T01:33:34;66.23;;;63.83;;
13250;SDS011;6692;50.710;7.180;2023-01-16T01:35:36;69.57;;;67.10;;
13250;SDS011;6692;50.710;7.180;2023-01-16T01:37:36;67.87;;;65.47;;
13250;SDS011;6692;50.710;7.180;2023-01-16T01:39:37;64.97;;;62.50;;
13250;SDS011;6692;50.710;7.180;2023-01-16T01:41:38;65.83;;;63.37;;
13250;SDS011;6692;50.710;7.180;2023-01-16T01:43:40;65.40;;;62.93;;
13250;SDS011;6692;50.710;7.180;2023-01-16T01:45:45;60.10;;;57.93;;
13250;SDS011;6692;50.710;7.180;2023-01-16T01:47:47;66.47;;;64.10;;
13250;SDS011;6692;50.710;7.180;2023-01-16T01:50:03;53.97;;;51.93;;
13250;SDS011;6692;50.710;7.180;2023-01-16T01:52:03;54.60;;;52.50;;
13250;SDS011;6692;50.710;7.180;2023-01-16T01:54:05;62.20;;;59.83;;
13250;SDS011;6692;50.710;7.180;2023-01-16T01:56:06;68.47;;;66.03;;
13250;SDS011;6692;50.710;7.180;2023-01-16T01:58:07;64.37;;;62.03;;
13250;SDS011;6692;50.710;7.180;2023-01-16T02:00:10;69.07;;;66.57;;
13250;SDS011;6692;50.710;7.180;2023-01-16T02:02:13;66.03;;;63.70;;
13250;SDS011;6692;50.710;7.180;2023-01-16T02:04:14;73.43;;;70.80;;
13250;SDS011;6692;50.710;7.180;2023-01-16T02:06:14;66.83;;;64.33;;
13250;SDS011;6692;50.710;7.180;2023-01-16T02:08:15;64.47;;;62.07;;
13250;SDS011;6692;50.710;7.180;2023-01-16T02:10:20;63.60;;;61.30;;
13250;SDS011;6692;50.710;7.180;2023-01-16T02:12:31;61.67;;;59.40;;
13250;SDS011;6692;50.710;7.180;2023-01-16T02:14:33;57.23;;;55.13;;
13250;SDS011;6692;50.710;7.180;2023-01-16T02:16:32;55.40;;;53.37;;
13250;SDS011;6692;50.710;7.180;2023-01-16T02:18:39;52.97;;;51.10;;
13250;SDS011;6692;50.710;7.180;2023-01-16T02:23:03;48.53;;;46.63;;
13250;SDS011;6692;50.710;7.180;2023-01-16T02:30:14;37.40;;;36.03;;
13250;SDS011;6692;50.710;7.180;2023-01-16T02:32:28;37.67;;;36.17;;
13250;SDS011;6692;50.710;7.180;2023-01-16T02:34:44;40.50;;;39.00;;
13250;SDS011;6692;50.710;7.180;2023-01-16T02:36:55;37.60;;;36.00;;
13250;SDS011;6692;50.710;7.180;2023-01-16T02:39:05;36.50;;;35.13;;
13250;SDS011;6692;50.710;7.180;2023-01-16T02:41:04;39.97;;;38.50;;
13250;SDS011;6692;50.710;7.180;2023-01-16T02:43:44;41.40;;;39.80;;
13250;SDS011;6692;50.710;7.180;2023-01-16T02:45:39;34.40;;;33.07;;
13250;SDS011;6692;50.710;7.180;2023-01-16T02:48:04;35.93;;;34.60;;
13250;SDS011;6692;50.710;7.180;2023-01-16T02:50:34;34.10;;;32.83;;
13250;SDS011;6692;50.710;7.180;2023-01-16T02:52:44;38.40;;;36.93;;
13250;SDS011;6692;50.710;7.180;2023-01-16T02:55:03;40.37;;;38.87;;
13250;SDS011;6692;50.710;7.180;2023-01-16T02:57:04;40.63;;;39.13;;
13250;SDS011;6692;50.710;7.180;2023-01-16T02:59:06;49.50;;;47.57;;
13250;SDS011;6692;50.710;7.180;2023-01-16T03:01:07;54.50;;;52.30;;
13250;SDS011;6692;50.710;7.180;2023-01-16T03:03:16;55.70;;;53.67;;
13250;SDS011;6692;50.710;7.180;2023-01-16T03:05:08;50.90;;;49.00;;
13250;SDS011;6692;50.710;7.180;2023-01-16T03:07:32;53.27;;;51.23;;
13250;SDS011;6692;50.710;7.180;2023-01-16T03:09:39;43.40;;;41.60;;
13250;SDS011;6692;50.710;7.180;2023-01-16T03:11:47;43.67;;;42.07;;
13250;SDS011;6692;50.710;7.180;2023-01-16T03:13:54;40.93;;;39.40;;
13250;SDS011;6692;50.710;7.180;2023-01-16T03:15:57;41.33;;;39.83;;
13250;SDS011;6692;50.710;7.180;2023-01-16T03:18:34;43.80;;;42.20;;
13250;SDS011;6692;50.710;7.180;2023-01-16T03:20:57;33.77;;;32.47;;
13250;SDS011;6692;50.710;7.180;2023-01-16T03:22:41;37.83;;;36.47;;
13250;SDS011;6692;50.710;7.180;2023-01-16T03:25:00;31.77;;;30.57;;
13250;SDS011;6692;50.710;7.180;2023-01-16T03:27:00;43.63;;;42.00;;
13250;SDS011;6692;50.710;7.180;2023-01-16T03:29:06;40.77;;;39.23;;
13250;SDS011;6692;50.710;7.180;2023-01-16T03:31:13;38.43;;;37.00;;
13250;SDS011;6692;50.710;7.180;2023-01-16T03:33:19;45.27;;;43.60;;
13250;SDS011;6692;50.710;7.180;2023-01-16T03:35:37;39.33;;;37.53;;
13250;SDS011;6692;50.710;7.180;2023-01-16T03:37:39;48.60;;;46.73;;
13250;SDS011;6692;50.710;7.180;2023-01-16T03:39:43;51.57;;;49.63;;
13250;SDS011;6692;50.710;7.180;2023-01-16T03:41:44;54.60;;;52.57;;
13250;SDS011;6692;50.710;7.180;2023-01-16T03:43:45;59.30;;;56.93;;
13250;SDS011;6692;50.710;7.180;2023-01-16T03:45:49;63.87;;;61.57;;
13250;SDS011;6692;50.710;7.180;2023-01-16T03:47:50;55.50;;;53.47;;
13250;SDS011;6692;50.710;7.180;2023-01-16T03:49:51;63.13;;;60.80;;
13250;SDS011;6692;50.710;7.180;2023-01-16T03:51:52;58.77;;;56.63;;
13250;SDS011;6692;50.710;7.180;2023-01-16T03:53:57;62.53;;;60.13;;
13250;SDS011;6692;50.710;7.180;2023-01-16T03:55:59;65.20;;;62.87;;
13250;SDS011;6692;50.710;7.180;2023-01-16T03:58:00;63.53;;;61.10;;
13250;SDS011;6692;50.710;7.180;2023-01-16T04:00:05;66.90;;;64.40;;
13250;SDS011;6692;50.710;7.180;2023-01-16T04:02:09;61.17;;;58.80;;
13250;SDS011;6692;50.710;7.180;2023-01-16T04:04:20;66.90;;;64.43;;
13250;SDS011;6692;50.710;7.180;2023-01-16T04:06:31;65.77;;;63.27;;
13250;SDS011;6692;50.710;7.180;2023-01-16T04:08:40;58.20;;;56.03;;
13250;SDS011;6692;50.710;7.180;2023-01-16T04:10:41;61.13;;;58.80;;
13250;SDS011;6692;50.710;7.180;2023-01-16T04:12:43;57.67;;;55.40;;
13250;SDS011;6692;50.710;7.180;2023-01-16T04:14:43;54.63;;;52.50;;
13250;SDS011;6692;50.710;7.180;2023-01-16T04:16:43;54.30;;;52.23;;
13250;SDS011;6692;50.710;7.180;2023-01-16T04:18:45;57.00;;;54.87;;
13250;SDS011;6692;50.710;7.180;2023-01-16T04:20:46;58.40;;;56.23;;
13250;SDS011;6692;50.710;7.180;2023-01-16T04:22:47;61.87;;;59.60;;
13250;SDS011;6692;50.710;7.180;2023-01-16T04:24:47;58.73;;;56.50;;
13250;SDS011;6692;50.710;7.180;2023-01-16T04:26:47;63.53;;;61.27;;
13250;SDS011;6692;50.710;7.180;2023-01-16T04:28:49;56.10;;;54.03;;
13250;SDS011;6692;50.710;7.180;2023-01-16T04:30:49;66.37;;;63.37;;
13250;SDS011;6692;50.710;7.180;2023-01-16T04:32:50;54.40;;;52.30;;
13250;SDS011;6692;50.710;7.180;2023-01-16T04:34:51;51.50;;;49.53;;
13250;SDS011;6692;50.710;7.180;2023-01-16T04:36:51;55.33;;;53.30;;
13250;SDS011;6692;50.710;7.180;2023-01-16T04:38:52;48.57;;;46.63;;
13250;SDS011;6692;50.710;7.180;2023-01-16T04:40:53;52.63;;;50.60;;
13250;SDS011;6692;50.710;7.180;2023-01-16T04:42:53;49.50;;;47.60;;
13250;SDS011;6692;50.710;7.180;2023-01-16T04:44:54;51.33;;;49.47;;
13250;SDS011;6692;50.710;7.180;2023-01-16T04:46:55;54.93;;;52.97;;
13250;SDS011;6692;50.710;7.180;2023-01-16T04:48:57;49.63;;;47.73;;
13250;SDS011;6692;50.710;7.180;2023-01-16T04:50:58;53.87;;;51.80;;
13250;SDS011;6692;50.710;7.180;2023-01-16T04:52:58;52.00;;;50.03;;
13250;SDS011;6692;50.710;7.180;2023-01-16T04:54:59;52.53;;;50.40;;
13250;SDS011;6692;50.710;7.180;2023-01-16T04:56:59;47.43;;;45.63;;
13250;SDS011;6692;50.710;7.180;2023-01-16T04:59:00;53.07;;;51.03;;
13250;SDS011;6692;50.710;7.180;2023-01-16T05:01:01;53.07;;;51.07;;
13250;SDS011;6692;50.710;7.180;2023-01-16T05:03:02;51.63;;;49.77;;
13250;SDS011;6692;50.710;7.180;2023-01-16T05:05:02;57.83;;;55.73;;
13250;SDS011;6692;50.710;7.180;2023-01-16T05:07:04;60.37;;;58.17;;
13250;SDS011;6692;50.710;7.180;2023-01-16T05:09:05;65.37;;;62.97;;
13250;SDS011;6692;50.710;7.180;2023-01-16T05:11:06;64.07;;;61.73;;
13250;SDS011;6692;50.710;7.180;2023-01-16T05:13:06;56.33;;;54.03;;
13250;SDS011;6692;50.710;7.180;2023-01-16T05:15:07;60.47;;;58.23;;
13250;SDS011;6692;50.710;7.180;2023-01-16T05:17:09;66.30;;;63.90;;
13250;SDS011;6692;50.710;7.180;2023-01-16T05:19:10;61.13;;;58.80;;
13250;SDS011;6692;50.710;7.180;2023-01-16T05:21:11;68.87;;;66.27;;
13250;SDS011;6692;50.710;7.180;2023-01-16T05:23:11;69.83;;;67.37;;
13250;SDS011;6692;50.710;7.180;2023-01-16T05:25:12;69.30;;;66.73;;
13250;SDS011;6692;50.710;7.180;2023-01-16T05:27:13;68.70;;;66.10;;
13250;SDS011;6692;50.710;7.180;2023-01-16T05:29:13;64.67;;;62.30;;
13250;SDS011;6692;50.710;7.180;2023-01-16T05:31:14;61.33;;;58.93;;
13250;SDS011;6692;50.710;7.180;2023-01-16T05:33:15;69.30;;;66.77;;
13250;SDS011;6692;50.710;7.180;2023-01-16T05:35:16;65.33;;;63.00;;
13250;SDS011;6692;50.710;7.180;2023-01-16T05:37:17;79.27;;;76.40;;
13250;SDS011;6692;50.710;7.180;2023-01-16T05:39:17;67.73;;;65.23;;
13250;SDS011;6692;50.710;7.180;2023-01-16T05:41:18;61.47;;;59.03;;
13250;SDS011;6692;50.710;7.180;2023-01-16T05:43:19;68.53;;;66.03;;
13250;SDS011;6692;50.710;7.180;2023-01-16T05:45:19;69.53;;;66.77;;
13250;SDS011;6692;50.710;7.180;2023-01-16T05:47:20;61.90;;;59.60;;
13250;SDS011;6692;50.710;7.180;2023-01-16T05:49:21;57.67;;;55.53;;
13250;SDS011;6692;50.710;7.180;2023-01-16T05:51:21;61.50;;;59.00;;
13250;SDS011;6692;50.710;7.180;2023-01-16T05:53:22;66.97;;;64.50;;
13250;SDS011;6692;50.710;7.180;2023-01-16T05:55:23;62.33;;;60.03;;
13250;SDS011;6692;50.710;7.180;2023-01-16T05:57:23;60.77;;;58.53;;
13250;SDS011;6692;50.710;7.180;2023-01-16T05:59:24;65.73;;;63.30;;
13250;SDS011;6692;50.710;7.180;2023-01-16T06:01:25;64.33;;;61.90;;
13250;SDS011;6692;50.710;7.180;2023-01-16T06:03:26;66.53;;;63.93;;
13250;SDS011;6692;50.710;7.180;2023-01-16T06:05:27;64.43;;;62.03;;
13250;SDS011;6692;50.710;7.180;2023-01-16T06:07:27;64.20;;;61.57;;
13250;SDS011;6692;50.710;7.180;2023-01-16T06:09:28;65.33;;;62.83;;
13250;SDS011;6692;50.710;7.180;2023-01-16T06:11:29;64.67;;;62.00;;
13250;SDS011;6692;50.710;7.180;2023-01-16T06:13:29;60.27;;;58.03;;
13250;SDS011;6692;50.710;7.180;2023-01-16T06:15:30;62.57;;;60.20;;
13250;SDS011;6692;50.710;7.180;2023-01-16T06:17:31;64.87;;;62.47;;
13250;SDS011;6692;50.710;7.180;2023-01-16T06:19:31;62.10;;;59.73;;
13250;SDS011;6692;50.710;7.180;2023-01-16T06:21:33;58.37;;;56.00;;
13250;SDS011;6692;50.710;7.180;2023-01-16T06:23:34;65.90;;;63.43;;
13250;SDS011;6692;50.710;7.180;2023-01-16T06:25:35;59.70;;;57.43;;
13250;SDS011;6692;50.710;7.180;2023-01-16T06:27:35;59.20;;;56.90;;
13250;SDS011;6692;50.710;7.180;2023-01-16T06:29:36;58.23;;;55.90;;
13250;SDS011;6692;50.710;7.180;2023-01-16T06:31:37;58.27;;;56.10;;
13250;SDS011;6692;50.710;7.180;2023-01-16T06:33:37;57.57;;;55.43;;
13250;SDS011;6692;50.710;7.180;2023-01-16T06:35:38;62.97;;;60.60;;
13250;SDS011;6692;50.710;7.180;2023-01-16T06:37:39;59.10;;;56.87;;
13250;SDS011;6692;50.710;7.180;2023-01-16T06:39:39;56.53;;;54.30;;
13250;SDS011;6692;50.710;7.180;2023-01-16T06:41:40;55.40;;;53.23;;
13250;SDS011;6692;50.710;7.180;2023-01-16T06:43:41;49.93;;;47.97;;
13250;SDS011;6692;50.710;7.180;2023-01-16T06:45:41;53.40;;;51.40;;
13250;SDS011;6692;50.710;7.180;2023-01-16T06:47:42;51.90;;;49.83;;
13250;SDS011;6692;50.710;7.180;2023-01-16T06:49:43;56.33;;;53.93;;
13250;SDS011;6692;50.710;7.180;2023-01-16T06:51:43;48.43;;;46.60;;
13250;SDS011;6692;50.710;7.180;2023-01-16T06:53:44;47.17;;;45.30;;
13250;SDS011;6692;50.710;7.180;2023-01-16T06:55:44;54.53;;;52.40;;
13250;SDS011;6692;50.710;7.180;2023-01-16T06:57:45;61.93;;;59.70;;
13250;SDS011;6692;50.710;7.180;2023-01-16T06:59:47;58.27;;;56.07;;
13250;SDS011;6692;50.710;7.180;2023-01-16T07:01:47;58.03;;;55.80;;
13250;SDS011;6692;50.710;7.180;2023-01-16T07:03:48;54.23;;;52.03;;
13250;SDS011;6692;50.710;7.180;2023-01-16T07:05:49;53.33;;;51.33;;
13250;SDS011;6692;50.710;7.180;2023-01-16T07:07:49;57.27;;;55.10;;
13250;SDS011;6692;50.710;7.180;2023-01-16T07:09:50;54.40;;;52.37;;
13250;SDS011;6692;50.710;7.180;2023-01-16T07:11:51;60.10;;;57.67;;
13250;SDS011;6692;50.710;7.180;2023-01-16T07:13:51;59.13;;;56.83;;
13250;SDS011;6692;50.710;7.180;2023-01-16T07:15:53;57.60;;;55.37;;
13250;SDS011;6692;50.710;7.180;2023-01-16T07:17:59;62.83;;;60.47;;
13250;SDS011;6692;50.710;7.180;2023-01-16T07:20:08;60.67;;;58.43;;
13250;SDS011;6692;50.710;7.180;2023-01-16T07:22:15;50.07;;;48.03;;
13250;SDS011;6692;50.710;7.180;2023-01-16T07:24:22;55.07;;;52.77;;
13250;SDS011;6692;50.710;7.180;2023-01-16T07:26:22;59.60;;;57.43;;
13250;SDS011;6692;50.710;7.180;2023-01-16T07:28:23;65.13;;;62.53;;
13250;SDS011;6692;50.710;7.180;2023-01-16T07:30:24;60.97;;;58.50;;
13250;SDS011;6692;50.710;7.180;2023-01-16T07:32:25;56.37;;;54.27;;
13250;SDS011;6692;50.710;7.180;2023-01-16T07:34:26;65.60;;;63.10;;
13250;SDS011;6692;50.710;7.180;2023-01-16T07:36:27;59.07;;;56.73;;
13250;SDS011;6692;50.710;7.180;2023-01-16T07:38:28;61.37;;;59.03;;
13250;SDS011;6692;50.710;7.180;2023-01-16T07:40:29;66.90;;;64.37;;
13250;SDS011;6692;50.710;7.180;2023-01-16T07:42:29;67.70;;;65.13;;
13250;SDS011;6692;50.710;7.180;2023-01-16T07:44:30;61.43;;;58.80;;
13250;SDS011;6692;50.710;7.180;2023-01-16T07:46:31;67.53;;;64.93;;
13250;SDS011;6692;50.710;7.180;2023-01-16T07:48:32;64.43;;;61.97;;
13250;SDS011;6692;50.710;7.180;2023-01-16T07:50:33;58.00;;;55.83;;
13250;SDS011;6692;50.710;7.180;2023-01-16T07:52:33;61.43;;;59.03;;
13250;SDS011;6692;50.710;7.180;2023-01-16T07:54:34;61.13;;;58.87;;
13250;SDS011;6692;50.710;7.180;2023-01-16T07:56:35;60.73;;;58.30;;
13250;SDS011;6692;50.710;7.180;2023-01-16T07:58:36;62.47;;;59.97;;
13250;SDS011;6692;50.710;7.180;2023-01-16T08:00:38;63.33;;;60.87;;
13250;SDS011;6692;50.710;7.180;2023-01-16T08:02:39;57.87;;;55.57;;
13250;SDS011;6692;50.710;7.180;2023-01-16T08:04:39;60.03;;;57.63;;
13250;SDS011;6692;50.710;7.180;2023-01-16T08:06:40;58.20;;;56.00;;
13250;SDS011;6692;50.710;7.180;2023-01-16T08:08:40;57.20;;;54.97;;
13250;SDS011;6692;50.710;7.180;2023-01-16T08:10:41;60.87;;;58.53;;
13250;SDS011;6692;50.710;7.180;2023-01-16T08:12:42;59.27;;;57.00;;
13250;SDS011;6692;50.710;7.180;2023-01-16T08:14:43;58.10;;;55.77;;
13250;SDS011;6692;50.710;7.180;2023-01-16T08:16:44;57.07;;;54.87;;
13250;SDS011;6692;50.710;7.180;2023-01-16T08:18:45;57.93;;;55.80;;
13250;SDS011;6692;50.710;7.180;2023-01-16T08:20:46;59.07;;;56.77;;
13250;SDS011;6692;50.710;7.180;2023-01-16T08:22:47;62.47;;;60.20;;
13250;SDS011;6692;50.710;7.180;2023-01-16T08:24:47;61.43;;;59.10;;
13250;SDS011;6692;50.710;7.180;2023-01-16T08:26:48;57.93;;;55.80;;
13250;SDS011;6692;50.710;7.180;2023-01-16T08:28:48;61.43;;;59.10;;
13250;SDS011;6692;50.710;7.180;2023-01-16T08:30:49;62.73;;;60.47;;
13250;SDS011;6692;50.710;7.180;2023-01-16T08:32:51;59.70;;;57.43;;
13250;SDS011;6692;50.710;7.180;2023-01-16T08:34:50;58.73;;;56.53;;
13250;SDS011;6692;50.710;7.180;2023-01-16T08:36:51;57.43;;;55.33;;
13250;SDS011;6692;50.710;7.180;2023-01-16T08:38:52;59.97;;;57.77;;
13250;SDS011;6692;50.710;7.180;2023-01-16T08:40:53;60.77;;;58.53;;
13250;SDS011;6692;50.710;7.180;2023-01-16T08:42:54;69.40;;;66.83;;
13250;SDS011;6692;50.710;7.180;2023-01-16T08:45:00;58.13;;;55.80;;
13250;SDS011;6692;50.710;7.180;2023-01-16T08:47:10;65.00;;;62.60;;
13250;SDS011;6692;50.710;7.180;2023-01-16T08:49:15;60.70;;;58.53;;
13250;SDS011;6692;50.710;7.180;2023-01-16T08:51:22;61.07;;;58.77;;
13250;SDS011;6692;50.710;7.180;2023-01-16T08:53:22;54.70;;;52.70;;
13250;SDS011;6692;50.710;7.180;2023-01-16T08:55:24;62.27;;;60.00;;
13250;SDS011;6692;50.710;7.180;2023-01-16T08:57:25;59.77;;;57.53;;
13250;SDS011;6692;50.710;7.180;2023-01-16T08:59:25;54.33;;;52.27;;
13250;SDS011;6692;50.710;7.180;2023-01-16T09:01:27;60.13;;;57.90;;
13250;SDS011;6692;50.710;7.180;2023-01-16T09:03:27;56.87;;;54.73;;
13250;SDS011;6692;50.710;7.180;2023-01-16T09:05:28;66.23;;;63.73;;
13250;SDS011;6692;50.710;7.180;2023-01-16T09:07:29;66.20;;;63.63;;
13250;SDS011;6692;50.710;7.180;2023-01-16T09:09:29;73.20;;;70.47;;
13250;SDS011;6692;50.710;7.180;2023-01-16T09:11:30;68.17;;;65.67;;
13250;SDS011;6692;50.710;7.180;2023-01-16T09:13:37;63.70;;;61.23;;
13250;SDS011;6692;50.710;7.180;2023-01-16T09:15:44;63.60;;;61.30;;
13250;SDS011;6692;50.710;7.180;2023-01-16T09:17:44;73.07;;;70.33;;
13250;SDS011;6692;50.710;7.180;2023-01-16T09:19:45;69.03;;;66.53;;
13250;SDS011;6692;50.710;7.180;2023-01-16T09:21:46;73.90;;;71.27;;
13250;SDS011;6692;50.710;7.180;2023-01-16T09:23:47;74.17;;;71.57;;
13250;SDS011;6692;50.710;7.180;2023-01-16T09:25:48;79.83;;;77.00;;
13250;SDS011;6692;50.710;7.180;2023-01-16T09:27:49;72.60;;;69.97;;
13250;SDS011;6692;50.710;7.180;2023-01-16T09:29:50;72.73;;;70.10;;
13250;SDS011;6692;50.710;7.180;2023-01-16T09:31:50;75.30;;;72.57;;
13250;SDS011;6692;50.710;7.180;2023-01-16T09:33:51;80.33;;;77.40;;
13250;SDS011;6692;50.710;7.180;2023-01-16T09:35:52;77.57;;;74.67;;
13250;SDS011;6692;50.710;7.180;2023-01-16T09:37:52;79.07;;;76.27;;
13250;SDS011;6692;50.710;7.180;2023-01-16T09:39:53;74.33;;;71.53;;
13250;SDS011;6692;50.710;7.180;2023-01-16T09:41:59;73.07;;;70.27;;
13250;SDS011;6692;50.710;7.180;2023-01-16T09:44:05;68.27;;;65.83;;
13250;SDS011;6692;50.710;7.180;2023-01-16T09:48:28;68.27;;;65.87;;
13250;SDS011;6692;50.710;7.180;2023-01-16T09:50:29;72.33;;;69.73;;
13250;SDS011;6692;50.710;7.180;2023-01-16T09:52:31;79.70;;;76.93;;
13250;SDS011;6692;50.710;7.180;2023-01-16T09:54:39;75.67;;;72.73;;
13250;SDS011;6692;50.710;7.180;2023-01-16T09:56:45;73.80;;;71.20;;
13250;SDS011;6692;50.710;7.180;2023-01-16T09:58:57;72.90;;;70.30;;
13250;SDS011;6692;50.710;7.180;2023-01-16T10:00:56;76.17;;;73.47;;
13250;SDS011;6692;50.710;7.180;2023-01-16T10:02:57;77.10;;;74.30;;
13250;SDS011;6692;50.710;7.180;2023-01-16T10:04:58;78.37;;;75.57;;
13250;SDS011;6692;50.710;7.180;2023-01-16T10:07:02;83.30;;;80.33;;
13250;SDS011;6692;50.710;7.180;2023-01-16T10:09:04;72.40;;;69.77;;
13250;SDS011;6692;50.710;7.180;2023-01-16T10:11:06;74.10;;;71.47;;
13250;SDS011;6692;50.710;7.180;2023-01-16T10:17:47;68.33;;;65.73;;
13250;SDS011;6692;50.710;7.180;2023-01-16T10:20:06;66.33;;;63.97;;
13250;SDS011;6692;50.710;7.180;2023-01-16T10:22:11;73.87;;;70.90;;
13250;SDS011;6692;50.710;7.180;2023-01-16T10:24:33;68.07;;;65.57;;
13250;SDS011;6692;50.710;7.180;2023-01-16T10:26:40;78.00;;;75.27;;
13250;SDS011;6692;50.710;7.180;2023-01-16T10:30:54;81.43;;;78.57;;
13250;SDS011;6692;50.710;7.180;2023-01-16T10:33:04;84.30;;;81.37;;
13250;SDS011;6692;50.710;7.180;2023-01-16T10:35:22;70.03;;;67.50;;
13250;SDS011;6692;50.710;7.180;2023-01-16T10:37:22;82.43;;;79.53;;
13250;SDS011;6692;50.710;7.180;2023-01-16T10:39:22;78.77;;;76.00;;
13250;SDS011;6692;50.710;7.180;2023-01-16T10:41:25;80.00;;;77.17;;
13250;SDS011;6692;50.710;7.180;2023-01-16T10:43:32;76.07;;;73.37;;
13250;SDS011;6692;50.710;7.180;2023-01-16T10:45:37;81.83;;;78.97;;
13250;SDS011;6692;50.710;7.180;2023-01-16T10:47:43;80.83;;;77.90;;
13250;SDS011;6692;50.710;7.180;2023-01-16T10:49:50;79.87;;;77.07;;
13250;SDS011;6692;50.710;7.180;2023-01-16T10:51:51;75.17;;;72.47;;
13250;SDS011;6692;50.710;7.180;2023-01-16T10:53:51;89.23;;;86.13;;
13250;SDS011;6692;50.710;7.180;2023-01-16T10:55:52;90.83;;;87.67;;
13250;SDS011;6692;50.710;7.180;2023-01-16T10:57:54;87.37;;;84.27;;
13250;SDS011;6692;50.710;7.180;2023-01-16T10:59:57;81.27;;;78.37;;
13250;SDS011;6692;50.710;7.180;2023-01-16T11:01:58;80.77;;;77.90;;
13250;SDS011;6692;50.710;7.180;2023-01-16T11:03:59;83.30;;;80.33;;
13250;SDS011;6692;50.710;7.180;2023-01-16T11:06:07;73.60;;;71.00;;
13250;SDS011;6692;50.710;7.180;2023-01-16T11:08:09;77.53;;;74.80;;
13250;SDS011;6692;50.710;7.180;2023-01-16T11:10:14;82.50;;;79.60;;
13250;SDS011;6692;50.710;7.180;2023-01-16T11:12:09;92.03;;;88.80;;
13250;SDS011;6692;50.710;7.180;2023-01-16T11:14:18;85.47;;;82.47;;
13250;SDS011;6692;50.710;7.180;2023-01-16T11:16:27;76.67;;;74.00;;
13250;SDS011;6692;50.710;7.180;2023-01-16T11:18:35;85.17;;;82.07;;
13250;SDS011;6692;50.710;7.180;2023-01-16T11:20:34;97.80;;;94.30;;
13250;SDS011;6692;50.710;7.180;2023-01-16T11:22:35;109.53;;;105.70;;
13250;SDS011;6692;50.710;7.180;2023-01-16T11:24:36;115.87;;;111.80;;
13250;SDS011;6692;50.710;7.180;2023-01-16T11:26:36;99.43;;;95.93;;
13250;SDS011;6692;50.710;7.180;2023-01-16T11:28:37;103.97;;;100.37;;
13250;SDS011;6692;50.710;7.180;2023-01-16T11:30:38;105.90;;;102.27;;
13250;SDS011;6692;50.710;7.180;2023-01-16T11:32:38;97.27;;;93.87;;
13250;SDS011;6692;50.710;7.180;2023-01-16T11:34:43;89.57;;;86.33;;
13250;SDS011;6692;50.710;7.180;2023-01-16T11:36:41;84.97;;;81.97;;
13250;SDS011;6692;50.710;7.180;2023-01-16T11:38:42;91.80;;;88.50;;
13250;SDS011;6692;50.710;7.180;2023-01-16T11:40:44;91.60;;;88.37;;
13250;SDS011;6692;50.710;7.180;2023-01-16T11:42:51;85.40;;;82.37;;
13250;SDS011;6692;50.710;7.180;2023-01-16T11:44:59;70.93;;;68.37;;
13250;SDS011;6692;50.710;7.180;2023-01-16T11:47:05;74.13;;;71.47;;
13250;SDS011;6692;50.710;7.180;2023-01-16T11:49:14;76.93;;;74.17;;
13250;SDS011;6692;50.710;7.180;2023-01-16T11:51:16;74.23;;;71.53;;
13250;SDS011;6692;50.710;7.180;2023-01-16T11:53:15;88.37;;;85.27;;
13250;SDS011;6692;50.710;7.180;2023-01-16T11:55:15;86.80;;;83.73;;
13250;SDS011;6692;50.710;7.180;2023-01-16T11:57:21;87.53;;;84.43;;
13250;SDS011;6692;50.710;7.180;2023-01-16T11:59:26;85.27;;;82.23;;
13250;SDS011;6692;50.710;7.180;2023-01-16T12:01:30;84.07;;;81.03;;
13250;SDS011;6692;50.710;7.180;2023-01-16T12:04:05;89.30;;;86.03;;
13250;SDS011;6692;50.710;7.180;2023-01-16T12:08:18;86.50;;;83.47;;
13250;SDS011;6692;50.710;7.180;2023-01-16T12:12:44;95.80;;;92.40;;
13250;SDS011;6692;50.710;7.180;2023-01-16T12:14:53;101.43;;;97.87;;
13250;SDS011;6692;50.710;7.180;2023-01-16T12:16:59;90.87;;;87.67;;
13250;SDS011;6692;50.710;7.180;2023-01-16T12:19:03;90.63;;;87.47;;
13250;SDS011;6692;50.710;7.180;2023-01-16T12:21:07;85.17;;;82.17;;
13250;SDS011;6692;50.710;7.180;2023-01-16T12:24:18;89.50;;;86.33;;
13250;SDS011;6692;50.710;7.180;2023-01-16T12:25:35;74.40;;;71.73;;
13250;SDS011;6692;50.710;7.180;2023-01-16T12:27:44;80.53;;;77.73;;
13250;SDS011;6692;50.710;7.180;2023-01-16T12:29:54;86.60;;;83.60;;